Time;durP1;ratioP1;P1;durP2;ratioP2;P2;SDS_P1;SDS_P2;PMS_P1;PMS_P2;Temp;Humidity;BMP_temperature;BMP_pressure;BME280_temperature;BME280_humidity;BME280_pressure;Samples;Min_cycle;Max_cycle;Signal;HPM_P1;HPM_P2
2023/12/02 00:00:22;;;;;;;14.80;4.97;;;;;;;-3.44;90.41;100508.31;5127040;28;20195;-62
2023/12/02 00:02:48;;;;;;;17.47;5.73;;;;;;;-3.44;90.29;100508.31;5127302;27;20038;-62
2023/12/02 00:05:13;;;;;;;15.90;5.60;;;;;;;-3.44;89.82;100510.88;5127178;27;20114;-61
2023/12/02 00:07:39;;;;;;;16.38;6.22;;;;;;;-3.40;89.95;100506.13;5119242;27;20031;-62
2023/12/02 00:10:05;;;;;;;13.03;4.40;;;;;;;-3.35;89.81;100499.72;5112845;28;20028;-62
2023/12/02 00:12:30;;;;;;;15.75;5.07;;;;;;;-3.36;88.98;100507.34;5113284;28;20082;-62
2023/12/02 00:14:56;;;;;;;10.50;3.40;;;;;;;-3.37;89.20;100505.53;5113363;28;20160;-62
2023/12/02 00:17:21;;;;;;;14.70;5.27;;;;;;;-3.50;89.14;100496.66;5113494;28;20058;-62
2023/12/02 00:19:46;;;;;;;17.87;5.57;;;;;;;-3.56;88.94;100497.78;5112322;28;20110;-62
2023/12/02 00:22:13;;;;;;;16.63;5.23;;;;;;;-3.60;89.34;100488.81;5113065;28;20118;-61
2023/12/02 00:24:38;;;;;;;16.83;4.85;;;;;;;-3.59;89.78;100492.31;5113179;28;20038;-61
2023/12/02 00:27:04;;;;;;;14.63;4.90;;;;;;;-3.63;89.33;100493.72;5113007;28;20482;-61
2023/12/02 00:29:30;;;;;;;14.02;4.45;;;;;;;-3.69;89.52;100489.66;5112727;28;20176;-61
2023/12/02 00:31:55;;;;;;;15.67;4.90;;;;;;;-3.73;89.88;100485.91;5113037;28;20047;-61
2023/12/02 00:34:21;;;;;;;14.60;5.30;;;;;;;-3.69;90.30;100485.41;5113131;28;20063;-61
2023/12/02 00:36:46;;;;;;;15.37;5.03;;;;;;;-3.66;89.62;100482.22;5112680;28;20313;-60
2023/12/02 00:39:12;;;;;;;14.80;5.43;;;;;;;-3.68;89.78;100474.31;5112176;28;20081;-61
2023/12/02 00:41:38;;;;;;;14.27;4.40;;;;;;;-3.65;89.80;100484.03;5112655;28;20138;-62
2023/12/02 00:44:03;;;;;;;15.02;4.28;;;;;;;-3.64;89.45;100480.66;5112946;28;20036;-59
2023/12/02 00:46:29;;;;;;;15.43;4.73;;;;;;;-3.66;89.06;100482.22;5112585;28;20032;-60
2023/12/02 00:48:54;;;;;;;13.02;4.45;;;;;;;-3.70;88.67;100485.28;5112447;28;20046;-60
2023/12/02 00:51:19;;;;;;;15.47;5.37;;;;;;;-3.72;88.56;100491.97;5112261;28;20131;-61
2023/12/02 00:53:45;;;;;;;11.40;4.73;;;;;;;-3.75;89.23;100489.13;5106553;28;20123;-61
2023/12/02 00:56:10;;;;;;;17.37;5.73;;;;;;;-3.79;89.27;100494.75;5091871;28;20621;-60
2023/12/02 00:58:36;;;;;;;13.73;4.93;;;;;;;-3.82;89.21;100494.47;5091963;28;20032;-61
2023/12/02 01:01:01;;;;;;;16.03;5.20;;;;;;;-3.81;89.12;100492.03;5091583;28;20127;-60
2023/12/02 01:03:27;;;;;;;14.23;5.43;;;;;;;-3.82;89.27;100485.06;5091906;28;20055;-60
2023/12/02 01:05:52;;;;;;;15.75;4.78;;;;;;;-3.82;89.28;100479.91;5091881;28;20040;-61
2023/12/02 01:08:17;;;;;;;13.93;4.80;;;;;;;-3.80;89.28;100488.69;5091647;28;20040;-61
2023/12/02 01:10:43;;;;;;;14.50;4.43;;;;;;;-3.79;89.74;100495.66;5091275;28;20043;-60
2023/12/02 01:13:08;;;;;;;16.33;5.47;;;;;;;-3.87;89.32;100495.72;5091969;28;20043;-61
2023/12/02 01:15:33;;;;;;;16.43;5.50;;;;;;;-3.88;89.84;100494.81;5091762;28;20042;-61
2023/12/02 01:17:59;;;;;;;14.73;4.90;;;;;;;-3.87;90.01;100504.38;5091438;28;20115;-61
2023/12/02 01:20:24;;;;;;;11.90;4.37;;;;;;;-3.87;90.04;100506.94;5090130;28;20369;-61
2023/12/02 01:22:50;;;;;;;19.23;5.70;;;;;;;-3.86;89.20;100505.28;5091067;28;20044;-60
2023/12/02 01:25:15;;;;;;;14.70;4.43;;;;;;;-3.89;89.56;100512.69;5091571;28;20107;-61
2023/12/02 01:27:40;;;;;;;14.37;5.33;;;;;;;-3.94;89.20;100505.44;5091662;28;20050;-61
2023/12/02 01:30:06;;;;;;;14.23;5.17;;;;;;;-3.95;89.38;100505.34;5090961;28;20118;-63
2023/12/02 01:32:31;;;;;;;17.50;5.60;;;;;;;-3.99;89.49;100521.25;5091528;28;20743;-61
2023/12/02 01:34:57;;;;;;;20.10;5.70;;;;;;;-4.03;89.27;100511.44;5091313;28;20123;-61
2023/12/02 01:37:22;;;;;;;14.37;4.57;;;;;;;-3.99;89.68;100501.53;5091765;28;20111;-61
2023/12/02 01:39:47;;;;;;;14.40;4.60;;;;;;;-3.91;90.02;100499.69;5090237;28;20115;-62
2023/12/02 01:42:13;;;;;;;18.83;5.97;;;;;;;-3.91;89.25;100499.69;5091302;28;20496;-61
2023/12/02 01:44:38;;;;;;;18.00;5.93;;;;;;;-3.92;89.40;100493.63;5091242;28;20039;-62
2023/12/02 01:47:04;;;;;;;14.03;4.13;;;;;;;-3.93;88.93;100499.53;5091279;28;20032;-60
2023/12/02 01:49:31;;;;;;;17.93;5.67;;;;;;;-3.93;89.48;100496.97;5090511;28;20036;-60
2023/12/02 01:51:57;;;;;;;13.82;4.55;;;;;;;-3.90;89.66;100495.44;5091182;28;20054;-60
2023/12/02 01:54:23;;;;;;;13.93;4.93;;;;;;;-3.88;89.13;100501.63;5101667;28;20126;-61
2023/12/02 01:56:48;;;;;;;18.90;6.13;;;;;;;-3.89;88.86;100507.53;5111172;28;20070;-61
2023/12/02 01:59:26;;;;;;;16.25;5.30;;;;;;;-3.87;89.06;100511.19;5109502;28;20430;-60
2023/12/02 02:01:51;;;;;;;14.23;5.00;;;;;;;-3.87;89.19;100522.41;5111235;28;20039;-60
2023/12/02 02:04:18;;;;;;;16.70;5.37;;;;;;;-3.84;89.24;100516.63;5111293;28;20036;-61
2023/12/02 02:06:44;;;;;;;15.70;4.90;;;;;;;-3.81;88.95;100514.34;5111195;28;20493;-60
2023/12/02 02:09:09;;;;;;;15.25;4.75;;;;;;;-3.81;89.10;100523.00;5110617;28;20036;-60
2023/12/02 02:11:35;;;;;;;15.00;5.07;;;;;;;-3.82;88.93;100520.25;5111163;28;20043;-62
2023/12/02 02:14:00;;;;;;;12.83;3.77;;;;;;;-3.84;88.44;100509.78;5111193;28;20126;-61
2023/12/02 02:18:48;;;;;;;14.00;5.53;;;;;;;-3.94;88.22;100523.50;5107702;27;20367;-62
2023/12/02 02:21:20;;;;;;;18.97;5.47;;;;;;;-3.99;88.56;100517.00;5107607;28;20039;-61
2023/12/02 02:23:45;;;;;;;13.98;4.63;;;;;;;-4.04;88.57;100513.09;5107659;28;20132;-62
2023/12/02 02:26:10;;;;;;;19.57;6.47;;;;;;;-4.03;89.04;100514.91;5107875;28;20181;-63
2023/12/02 02:28:36;;;;;;;18.35;5.10;;;;;;;-4.02;89.21;100518.41;5107739;28;20576;-61
2023/12/02 02:31:01;;;;;;;15.57;4.97;;;;;;;-4.02;88.98;100513.25;5107471;28;20036;-62
2023/12/02 02:33:27;;;;;;;15.50;4.77;;;;;;;-4.00;88.91;100517.81;5107640;28;20440;-61
2023/12/02 02:35:52;;;;;;;11.03;3.80;;;;;;;-4.01;89.07;100513.41;5105502;28;20036;-61
2023/12/02 02:38:18;;;;;;;14.95;5.07;;;;;;;-4.06;88.95;100506.00;5106740;28;20566;-61
2023/12/02 02:40:44;;;;;;;13.57;4.50;;;;;;;-4.09;88.86;100500.53;5107378;28;20424;-63
2023/12/02 02:43:09;;;;;;;13.33;4.70;;;;;;;-4.11;89.04;100499.50;5107626;28;20281;-62
2023/12/02 02:45:34;;;;;;;11.90;4.23;;;;;;;-4.12;88.96;100496.00;5107701;28;20035;-61
2023/12/02 02:48:00;;;;;;;12.53;3.80;;;;;;;-4.10;89.20;100491.91;5107223;28;20116;-62
2023/12/02 02:50:26;;;;;;;14.10;4.57;;;;;;;-4.14;88.34;100489.78;5107045;28;20122;-63
2023/12/02 02:52:51;;;;;;;12.48;4.30;;;;;;;-4.15;88.72;100481.94;5107312;28;20032;-62
2023/12/02 02:55:16;;;;;;;14.40;4.77;;;;;;;-4.20;88.85;100478.00;5125634;28;20041;-62
2023/12/02 02:57:42;;;;;;;12.43;3.30;;;;;;;-4.23;89.04;100481.19;5127766;27;20034;-62
2023/12/02 03:00:11;;;;;;;12.93;4.03;;;;;;;-4.28;89.12;100490.16;5127187;28;20082;-62
2023/12/02 03:02:37;;;;;;;12.00;4.27;;;;;;;-4.26;88.60;100498.97;5126149;27;20035;-62
2023/12/02 03:05:04;;;;;;;13.88;3.22;;;;;;;-4.24;88.75;100502.56;5127684;28;20092;-61
2023/12/02 03:07:29;;;;;;;13.80;4.53;;;;;;;-4.25;88.87;100505.94;5115534;27;20059;-62
2023/12/02 03:09:56;;;;;;;11.67;3.93;;;;;;;-4.31;88.47;100500.19;5102763;27;20114;-62
2023/12/02 03:12:22;;;;;;;13.77;3.58;;;;;;;-4.36;88.81;100501.44;5106783;28;20035;-62
2023/12/02 03:14:47;;;;;;;13.67;5.13;;;;;;;-4.40;88.46;100504.50;5106569;28;20032;-62
2023/12/02 03:17:13;;;;;;;15.75;5.60;;;;;;;-4.43;89.14;100504.19;5106530;28;20521;-61
2023/12/02 03:19:38;;;;;;;16.07;5.80;;;;;;;-4.47;88.87;100507.22;5102013;28;20036;-61
2023/12/02 03:22:04;;;;;;;11.67;3.90;;;;;;;-4.48;89.04;100508.91;5102202;28;20410;-62
2023/12/02 03:24:29;;;;;;;14.15;4.78;;;;;;;-4.48;89.48;100510.56;5100939;28;20028;-61
2023/12/02 03:26:55;;;;;;;13.70;4.60;;;;;;;-4.43;88.95;100515.41;5099973;28;20419;-60
2023/12/02 03:29:20;;;;;;;11.27;3.63;;;;;;;-4.37;88.98;100518.56;5096738;28;20058;-61
2023/12/02 03:31:45;;;;;;;13.63;4.80;;;;;;;-4.38;88.77;100521.91;5099232;28;20044;-61
2023/12/02 03:34:11;;;;;;;15.23;3.88;;;;;;;-4.41;88.48;100519.03;5096101;28;20511;-59
2023/12/02 03:36:36;;;;;;;14.53;4.33;;;;;;;-4.39;88.51;100524.34;5090456;28;20054;-60
2023/12/02 03:39:02;;;;;;;15.03;4.80;;;;;;;-4.41;88.19;100513.88;5087872;28;20060;-62
2023/12/02 03:41:28;;;;;;;20.50;5.70;;;;;;;-4.50;88.12;100510.44;5092548;28;20028;-61
2023/12/02 03:43:53;;;;;;;14.63;4.10;;;;;;;-4.51;88.63;100506.03;5092788;28;20044;-62
2023/12/02 03:46:19;;;;;;;18.05;4.47;;;;;;;-4.51;88.30;100502.56;5092309;28;20530;-62
2023/12/02 03:48:44;;;;;;;16.10;4.73;;;;;;;-4.54;88.64;100510.00;5092354;28;20040;-61
2023/12/02 03:51:09;;;;;;;13.57;4.23;;;;;;;-4.57;88.22;100508.03;5092023;28;20036;-62
2023/12/02 03:53:36;;;;;;;17.27;4.50;;;;;;;-4.55;88.87;100514.25;5092835;28;20476;-63
2023/12/02 03:56:02;;;;;;;15.32;4.88;;;;;;;-4.49;88.74;100519.09;5092434;28;20044;-62
2023/12/02 03:58:27;;;;;;;12.80;4.07;;;;;;;-4.47;88.56;100525.28;5092114;28;20526;-62
2023/12/02 04:00:55;;;;;;;13.10;4.77;;;;;;;-4.46;88.88;100532.25;5091766;28;20044;-62
2023/12/02 04:03:20;;;;;;;16.52;5.25;;;;;;;-4.46;88.30;100538.31;5092138;28;20496;-63
2023/12/02 04:05:46;;;;;;;12.77;4.73;;;;;;;-4.43;88.54;100553.16;5092260;28;20085;-62
2023/12/02 04:08:11;;;;;;;14.77;4.73;;;;;;;-4.43;88.44;100536.03;5091947;28;20119;-61
2023/12/02 04:10:36;;;;;;;13.10;4.47;;;;;;;-4.39;88.63;100524.34;5091199;28;20146;-62
2023/12/02 04:13:03;;;;;;;16.13;4.77;;;;;;;-4.31;88.72;100520.81;5092150;28;20411;-61
2023/12/02 04:15:28;;;;;;;13.45;5.10;;;;;;;-4.32;88.51;100520.66;5091715;28;20047;-62
2023/12/02 04:17:54;;;;;;;12.07;3.20;;;;;;;-4.30;88.57;100512.34;5091684;28;20044;-62
2023/12/02 04:20:21;;;;;;;16.97;5.23;;;;;;;-4.29;87.98;100503.81;5091170;28;20054;-63
2023/12/02 04:22:47;;;;;;;15.48;4.70;;;;;;;-4.24;87.86;100502.56;5091671;28;20098;-63
2023/12/02 04:25:13;;;;;;;14.77;5.50;;;;;;;-4.23;87.81;100509.56;5091834;28;20050;-62
2023/12/02 04:27:38;;;;;;;13.23;5.00;;;;;;;-4.22;87.58;100510.47;5091707;28;20036;-61
2023/12/02 04:30:04;;;;;;;11.50;3.90;;;;;;;-4.20;87.95;100520.19;5091082;28;20522;-61
2023/12/02 04:32:29;;;;;;;12.05;3.90;;;;;;;-4.23;87.90;100512.13;5091565;28;20052;-62
2023/12/02 04:34:55;;;;;;;10.53;2.97;;;;;;;-4.23;87.30;100504.41;5091651;28;20512;-62
2023/12/02 04:37:23;;;;;;;16.17;4.83;;;;;;;-4.26;87.57;100495.47;5091050;28;20039;-61
2023/12/02 04:42:01;;;;;;;11.70;4.47;;;;;;;-4.30;87.76;100503.69;5056855;28;20371;-62
2023/12/02 04:44:26;;;;;;;10.20;3.13;;;;;;;-4.33;87.82;100501.72;5047001;28;20045;-61
2023/12/02 04:46:52;;;;;;;11.70;4.57;;;;;;;-4.39;87.80;100496.88;5047134;28;20187;-61
2023/12/02 04:49:17;;;;;;;12.00;4.07;;;;;;;-4.37;87.32;100507.34;5046195;28;20108;-62
2023/12/02 04:51:42;;;;;;;11.57;4.07;;;;;;;-4.40;87.51;100514.81;5046807;28;20064;-61
2023/12/02 04:54:09;;;;;;;7.73;2.23;;;;;;;-4.39;88.01;100514.91;5047504;28;20402;-61
2023/12/02 04:56:35;;;;;;;10.68;2.95;;;;;;;-4.45;87.77;100524.69;5046333;28;20048;-62
2023/12/02 04:59:00;;;;;;;9.43;3.15;;;;;;;-4.55;87.26;100527.13;5046309;28;20045;-61
2023/12/02 05:03:45;;;;;;;10.13;3.13;;;;;;;-4.61;87.60;100543.66;5067148;28;20368;-62
2023/12/02 05:06:15;;;;;;;12.10;3.13;;;;;;;-4.68;87.70;100541.25;5056990;28;20033;-63
2023/12/02 05:08:41;;;;;;;8.48;2.78;;;;;;;-4.83;87.52;100545.81;5066627;28;20036;-62
2023/12/02 05:11:07;;;;;;;9.55;2.95;;;;;;;-4.82;87.80;100542.50;5064128;28;20049;-62
2023/12/02 05:13:33;;;;;;;8.63;2.05;;;;;;;-4.82;87.84;100547.63;5046757;28;20037;-62
2023/12/02 05:15:58;;;;;;;8.13;2.97;;;;;;;-4.82;87.77;100543.41;5046877;28;20452;-62
2023/12/02 05:18:23;;;;;;;8.67;2.33;;;;;;;-4.77;87.58;100559.31;5046610;28;20047;-62
2023/12/02 05:20:49;;;;;;;7.87;2.47;;;;;;;-4.78;87.43;100560.06;5046320;28;20390;-62
2023/12/02 05:23:14;;;;;;;9.07;2.75;;;;;;;-4.80;87.31;100561.59;5046592;28;20091;-62
2023/12/02 05:25:40;;;;;;;8.77;2.70;;;;;;;-4.78;87.51;100558.38;5046785;28;20037;-62
2023/12/02 05:28:05;;;;;;;9.83;2.67;;;;;;;-4.76;87.52;100560.22;5046069;28;20576;-62
2023/12/02 05:30:33;;;;;;;10.63;2.60;;;;;;;-4.78;87.49;100565.19;5044355;28;20033;-61
2023/12/02 05:32:58;;;;;;;9.68;2.80;;;;;;;-4.80;87.68;100567.66;5045879;28;20049;-62
2023/12/02 05:35:24;;;;;;;7.67;2.10;;;;;;;-4.81;87.12;100576.13;5045296;28;20420;-63
2023/12/02 05:37:50;;;;;;;8.10;2.50;;;;;;;-4.85;87.22;100581.75;5044953;28;20029;-63
2023/12/02 05:40:15;;;;;;;7.78;2.83;;;;;;;-4.88;87.72;100584.00;5045195;28;20041;-63
2023/12/02 05:42:41;;;;;;;8.27;2.43;;;;;;;-4.88;88.01;100584.00;5042317;28;20037;-63
2023/12/02 05:45:07;;;;;;;12.73;2.93;;;;;;;-4.86;88.31;100597.97;5046735;28;20124;-62
2023/12/02 05:47:32;;;;;;;7.53;2.25;;;;;;;-4.82;87.61;100592.34;5045965;28;20033;-61
2023/12/02 05:49:57;;;;;;;9.63;2.33;;;;;;;-4.78;88.08;100593.53;5044802;28;20556;-61
2023/12/02 05:52:23;;;;;;;7.87;2.40;;;;;;;-4.75;87.70;100595.53;5045823;28;20140;-62
2023/12/02 05:54:48;;;;;;;8.40;2.33;;;;;;;-4.74;87.76;100587.97;5045019;28;20409;-62
2023/12/02 05:57:13;;;;;;;7.37;2.47;;;;;;;-4.75;87.94;100586.13;5046369;28;20112;-62
2023/12/02 05:59:39;;;;;;;7.70;3.03;;;;;;;-4.70;87.62;100596.88;5045558;28;20346;-62
2023/12/02 06:02:04;;;;;;;6.47;2.43;;;;;;;-4.69;87.80;100583.25;5045957;28;20302;-62
2023/12/02 06:04:32;;;;;;;9.20;3.00;;;;;;;-4.68;88.00;100585.03;5046068;28;20044;-62
2023/12/02 06:06:59;;;;;;;8.40;2.67;;;;;;;-4.64;88.00;100589.75;5045655;28;20041;-62
2023/12/02 06:09:24;;;;;;;7.10;2.10;;;;;;;-4.63;87.25;100587.31;5045341;28;20553;-64
2023/12/02 06:11:50;;;;;;;6.88;2.58;;;;;;;-4.64;87.39;100585.53;5045831;28;20204;-63
2023/12/02 06:14:15;;;;;;;7.97;2.90;;;;;;;-4.62;87.34;100583.06;5037152;28;20145;-62
2023/12/02 06:16:41;;;;;;;8.13;2.33;;;;;;;-4.59;87.29;100589.44;5030737;28;20133;-63
2023/12/02 06:19:06;;;;;;;10.17;2.47;;;;;;;-4.57;87.30;100582.75;5031472;28;20386;-62
2023/12/02 06:21:31;;;;;;;7.47;2.57;;;;;;;-4.55;87.08;100581.25;5031958;28;20093;-62
2023/12/02 06:23:57;;;;;;;10.70;3.43;;;;;;;-4.55;86.87;100576.09;5027525;28;20365;-63
2023/12/02 06:26:22;;;;;;;6.87;2.43;;;;;;;-4.52;87.13;100572.88;5029298;28;20028;-63
2023/12/02 06:28:49;;;;;;;9.13;2.60;;;;;;;-4.47;87.20;100574.25;5029843;28;20140;-62
2023/12/02 06:31:15;;;;;;;8.15;2.33;;;;;;;-4.42;87.70;100566.19;5030274;28;20116;-63
2023/12/02 06:33:41;;;;;;;9.20;2.60;;;;;;;-4.41;87.30;100564.53;5026946;28;20025;-62
2023/12/02 06:36:08;;;;;;;9.40;2.37;;;;;;;-4.41;86.99;100580.91;5019197;28;20461;-63
2023/12/02 06:38:35;;;;;;;8.90;2.80;;;;;;;-4.44;87.58;100570.28;5096419;23;20057;-63
2023/12/02 06:41:02;;;;;;;8.57;3.35;;;;;;;-4.42;87.70;100576.50;5034848;28;20078;-63
2023/12/02 06:43:28;;;;;;;8.37;2.80;;;;;;;-4.36;87.58;100583.91;5026553;28;20042;-63
2023/12/02 06:45:53;;;;;;;8.43;2.65;;;;;;;-4.31;87.77;100584.38;5014827;28;20041;-64
2023/12/02 06:48:18;;;;;;;9.37;2.70;;;;;;;-4.29;87.12;100585.44;5031959;28;20524;-63
2023/12/02 06:50:44;;;;;;;12.20;3.60;;;;;;;-4.24;87.62;100589.38;5011945;28;20129;-64
2023/12/02 06:53:12;;;;;;;12.00;3.00;;;;;;;-4.21;87.44;100595.72;5012013;28;20666;-63
2023/12/02 06:55:37;;;;;;;8.65;2.67;;;;;;;-4.13;87.91;100593.84;5012590;28;20042;-64
2023/12/02 06:58:03;;;;;;;8.80;2.20;;;;;;;-4.13;87.41;100591.28;5012099;28;20045;-63
2023/12/02 07:00:28;;;;;;;9.13;2.90;;;;;;;-4.10;87.49;100595.06;5024209;28;20052;-62
2023/12/02 07:02:54;;;;;;;10.65;2.92;;;;;;;-4.05;87.64;100592.94;5014809;28;20048;-64
2023/12/02 07:05:19;;;;;;;8.13;2.67;;;;;;;-3.99;87.95;100591.81;5014299;28;20096;-64
2023/12/02 07:07:44;;;;;;;8.13;2.80;;;;;;;-3.93;87.29;100592.41;5014926;28;20032;-63
2023/12/02 07:10:10;;;;;;;8.20;2.67;;;;;;;-3.92;87.82;100599.38;5011470;28;20042;-62
2023/12/02 07:12:36;;;;;;;8.33;2.57;;;;;;;-3.84;87.78;100601.75;5015372;28;20451;-62
2023/12/02 07:15:04;;;;;;;9.90;3.25;;;;;;;-3.82;87.31;100603.75;5015803;28;20135;-63
2023/12/02 07:17:29;;;;;;;9.50;2.78;;;;;;;-3.77;87.67;100609.34;5018537;28;20033;-62
2023/12/02 07:19:55;;;;;;;6.20;1.93;;;;;;;-3.74;87.58;100615.69;5011179;28;20113;-62
2023/12/02 07:22:20;;;;;;;9.03;2.60;;;;;;;-3.66;87.76;100616.41;5011777;28;20029;-63
2023/12/02 07:24:45;;;;;;;9.13;2.90;;;;;;;-3.62;87.03;100626.25;5011684;28;20125;-62
2023/12/02 07:27:11;;;;;;;8.33;2.50;;;;;;;-3.57;87.40;100627.59;5011405;28;20476;-61
2023/12/02 07:29:37;;;;;;;13.33;2.70;;;;;;;-3.52;87.54;100626.34;5010583;28;20125;-62
2023/12/02 07:32:03;;;;;;;10.18;2.65;;;;;;;-3.49;87.30;100626.63;5011313;28;20497;-62
2023/12/02 07:34:28;;;;;;;8.00;2.40;;;;;;;-3.41;87.10;100638.59;5018056;28;20038;-62
2023/12/02 07:36:54;;;;;;;7.73;2.30;;;;;;;-3.39;86.89;100639.63;5011225;28;20466;-62
2023/12/02 07:39:19;;;;;;;9.70;2.77;;;;;;;-3.35;87.23;100636.56;5009962;28;20273;-61
2023/12/02 07:41:45;;;;;;;9.80;2.47;;;;;;;-3.27;86.77;100629.56;5028092;28;20148;-61
2023/12/02 07:44:11;;;;;;;10.75;3.03;;;;;;;-3.22;86.65;100629.22;5020154;28;20448;-61
2023/12/02 07:46:37;;;;;;;9.57;2.80;;;;;;;-3.18;86.43;100635.56;5013353;28;20042;-62
2023/12/02 07:49:02;;;;;;;11.10;3.60;;;;;;;-3.16;86.29;100639.22;5018269;28;20505;-62
2023/12/02 07:51:28;;;;;;;11.07;3.93;;;;;;;-3.15;86.72;100636.75;5010750;28;20101;-62
2023/12/02 07:53:53;;;;;;;7.77;2.90;;;;;;;-3.10;86.67;100634.59;5010565;28;20037;-61
2023/12/02 07:56:19;;;;;;;9.07;2.85;;;;;;;-3.07;86.33;100630.63;5011326;28;20641;-62
2023/12/02 07:58:44;;;;;;;10.87;3.17;;;;;;;-2.97;86.25;100639.22;5017472;28;20129;-63
2023/12/02 08:01:09;;;;;;;10.33;2.77;;;;;;;-2.86;86.38;100647.16;5010359;28;20084;-62
2023/12/02 08:03:35;;;;;;;8.07;2.53;;;;;;;-2.77;85.73;100639.38;5002791;28;20405;-62
2023/12/02 08:06:00;;;;;;;9.63;2.93;;;;;;;-2.74;85.58;100635.38;5010875;28;20117;-63
2023/12/02 08:08:26;;;;;;;8.77;2.90;;;;;;;-2.68;85.70;100640.19;5015913;28;20044;-62
2023/12/02 08:10:51;;;;;;;10.93;3.17;;;;;;;-2.66;85.30;100643.81;5010246;28;20581;-62
2023/12/02 08:13:17;;;;;;;10.15;2.83;;;;;;;-2.64;85.50;100645.78;5010660;28;20041;-62
2023/12/02 08:15:43;;;;;;;10.10;3.20;;;;;;;-2.59;85.34;100648.78;5017656;28;20042;-63
2023/12/02 08:18:09;;;;;;;10.00;3.00;;;;;;;-2.55;85.31;100649.94;5010234;28;20062;-63
2023/12/02 08:20:34;;;;;;;13.07;2.77;;;;;;;-2.53;85.47;100641.59;5010048;28;20132;-63
2023/12/02 08:23:00;;;;;;;13.77;3.93;;;;;;;-2.54;85.28;100656.94;5010597;28;20136;-62
2023/12/02 08:25:26;;;;;;;11.23;3.47;;;;;;;-2.52;85.55;100655.44;4992982;28;20049;-62
2023/12/02 08:27:58;;;;;;;13.00;4.10;;;;;;;-2.49;85.82;100664.34;5010815;28;20500;-63
2023/12/02 08:30:27;;;;;;;14.88;4.05;;;;;;;-2.43;85.49;100666.59;5010257;28;20057;-62
2023/12/02 08:32:53;;;;;;;11.43;3.63;;;;;;;-2.41;85.59;100653.00;5011160;28;20030;-62
2023/12/02 08:35:26;;;;;;;11.23;3.42;;;;;;;-2.35;85.76;100666.50;5009746;28;20030;-63
2023/12/02 08:37:55;;;;;;;12.85;3.60;;;;;;;-2.31;85.79;100662.50;5009795;28;20049;-64
2023/12/02 08:40:33;;;;;;;11.55;3.08;;;;;;;-2.22;85.19;100669.41;5014792;28;20037;-62
2023/12/02 08:42:59;;;;;;;12.38;3.50;;;;;;;-2.18;85.27;100668.03;5009836;28;20397;-63
2023/12/02 08:45:26;;;;;;;11.63;3.50;;;;;;;-2.13;85.20;100663.25;5010007;28;20048;-64
2023/12/02 08:47:52;;;;;;;16.58;4.53;;;;;;;-2.08;85.28;100660.31;5018217;28;20446;-65
2023/12/02 08:50:18;;;;;;;12.60;3.47;;;;;;;-2.01;85.40;100666.91;5010288;28;20176;-64
2023/12/02 08:52:47;;;;;;;11.90;3.67;;;;;;;-1.93;85.04;100661.66;5009693;28;20030;-64
2023/12/02 08:55:20;;;;;;;12.18;4.13;;;;;;;-1.87;84.79;100671.63;5006679;28;20186;-63
2023/12/02 08:57:46;;;;;;;10.35;3.00;;;;;;;-1.86;84.83;100687.28;5011219;28;20539;-65
2023/12/02 09:00:13;;;;;;;13.07;4.15;;;;;;;-1.89;84.52;100691.31;5010224;28;20068;-63
2023/12/02 09:02:42;;;;;;;10.75;3.45;;;;;;;-1.83;84.95;100681.50;5011708;28;20177;-63
2023/12/02 09:05:11;;;;;;;9.97;2.90;;;;;;;-1.78;84.80;100672.47;5012159;28;20377;-63
2023/12/02 09:07:38;;;;;;;13.75;3.78;;;;;;;-1.67;84.43;100666.50;5015294;28;20038;-63
2023/12/02 09:10:04;;;;;;;12.07;3.20;;;;;;;-1.62;84.20;100652.28;5009080;28;20081;-64
2023/12/02 09:12:31;;;;;;;13.32;3.42;;;;;;;-1.57;84.22;100668.22;5009782;28;20568;-64
2023/12/02 09:15:08;;;;;;;11.43;3.53;;;;;;;-1.48;84.18;100666.44;4993487;28;20048;-63
2023/12/02 09:18:03;;;;;;;12.90;4.07;;;;;;;-1.40;84.15;100663.75;5009618;28;20484;-64
2023/12/02 09:20:43;;;;;;;11.82;3.08;;;;;;;-1.30;83.95;100662.84;5010266;28;20046;-63
2023/12/02 09:23:11;;;;;;;12.98;4.10;;;;;;;-1.32;83.59;100656.59;5010899;28;20030;-68
2023/12/02 09:25:39;;;;;;;14.70;4.22;;;;;;;-1.33;83.57;100658.28;5009309;28;20501;-62
2023/12/02 09:28:05;;;;;;;12.82;3.72;;;;;;;-1.29;83.88;100655.97;5010627;28;20385;-64
2023/12/02 09:30:31;;;;;;;17.50;3.73;;;;;;;-1.24;84.15;100652.09;5009861;28;20639;-64
2023/12/02 09:32:57;;;;;;;14.70;4.65;;;;;;;-1.17;83.81;100654.41;5009970;28;20034;-64
2023/12/02 09:35:22;;;;;;;13.07;3.40;;;;;;;-1.09;83.92;100663.78;5010775;28;20060;-63
2023/12/02 09:37:51;;;;;;;14.10;4.23;;;;;;;-1.09;83.75;100666.38;5010386;28;20481;-64
2023/12/02 09:40:19;;;;;;;14.23;3.92;;;;;;;-1.10;83.79;100672.31;5013964;28;20045;-61
2023/12/02 09:42:53;;;;;;;12.13;4.03;;;;;;;-1.02;83.87;100671.28;5004101;28;20085;-64
2023/12/02 09:45:29;;;;;;;15.60;4.35;;;;;;;-1.01;83.50;100683.47;4999412;28;20045;-63
2023/12/02 09:48:05;;;;;;;13.68;4.18;;;;;;;-1.08;83.77;100674.25;4999696;28;20034;-64
2023/12/02 09:50:39;;;;;;;11.67;3.57;;;;;;;-1.04;83.87;100678.03;5002146;28;20050;-63
2023/12/02 09:53:30;;;;;;;15.85;4.25;;;;;;;-0.96;83.72;100687.34;5001595;28;20046;-65
2023/12/02 09:56:01;;;;;;;13.82;3.92;;;;;;;-0.96;84.00;100687.34;5003000;28;20034;-63
2023/12/02 09:58:39;;;;;;;15.65;4.93;;;;;;;-0.97;83.66;100685.53;5020586;28;20033;-65
2023/12/02 10:01:24;;;;;;;13.52;3.35;;;;;;;-0.94;83.80;100691.00;5029560;28;20037;-66
2023/12/02 10:04:00;;;;;;;14.60;4.47;;;;;;;-0.90;83.65;100693.06;5033702;28;20635;-64
2023/12/02 10:06:47;;;;;;;16.75;4.90;;;;;;;-0.86;83.75;100689.94;5034004;28;20048;-64
2023/12/02 10:09:55;;;;;;;16.83;4.57;;;;;;;-0.79;83.79;100676.69;5012959;28;20076;-64
2023/12/02 10:12:48;;;;;;;18.10;4.70;;;;;;;-0.72;83.21;100672.94;5015049;28;20379;-63
2023/12/02 10:15:16;;;;;;;14.43;4.28;;;;;;;-0.73;83.37;100672.03;5013543;28;20038;-63
2023/12/02 10:17:52;;;;;;;19.93;5.03;;;;;;;-0.69;83.43;100679.28;5014160;28;20065;-62
2023/12/02 10:20:24;;;;;;;14.73;5.05;;;;;;;-0.62;83.75;100671.25;5013453;28;20034;-62
2023/12/02 10:22:57;;;;;;;19.08;4.93;;;;;;;-0.48;83.39;100665.50;5013592;28;20040;-62
2023/12/02 10:25:39;;;;;;;21.63;6.05;;;;;;;-0.42;83.17;100659.94;5014342;28;20045;-64
2023/12/02 10:28:14;;;;;;;15.00;4.97;;;;;;;-0.40;82.80;100662.66;5014486;28;20060;-64
2023/12/02 10:30:46;;;;;;;19.27;5.67;;;;;;;-0.39;83.12;100659.25;5023872;28;20078;-64
2023/12/02 10:33:27;;;;;;;10.80;3.63;;;;;;;-0.42;83.18;100662.53;5032034;28;20030;-63
2023/12/02 10:35:57;;;;;;;11.75;3.90;;;;;;;-0.41;82.70;100663.44;5032155;28;20036;-62
2023/12/02 10:38:28;;;;;;;10.02;3.22;;;;;;;-0.41;82.61;100663.44;5033083;28;20495;-62
2023/12/02 10:41:09;;;;;;;8.30;2.80;;;;;;;-0.46;82.64;100660.47;5032801;28;20275;-62
2023/12/02 10:43:41;;;;;;;11.73;3.70;;;;;;;-0.48;82.99;100657.72;5029634;28;20091;-64
2023/12/02 10:46:07;;;;;;;8.73;2.78;;;;;;;-0.44;83.16;100653.69;5026117;28;20041;-64
2023/12/02 10:48:35;;;;;;;11.18;3.72;;;;;;;-0.44;83.03;100651.09;5031570;28;20044;-63
2023/12/02 10:51:01;;;;;;;10.82;3.10;;;;;;;-0.44;83.21;100648.50;5032554;28;20033;-64
2023/12/02 10:53:28;;;;;;;15.43;4.17;;;;;;;-0.51;82.92;100647.13;5033105;28;20087;-63
2023/12/02 10:55:59;;;;;;;12.55;4.43;;;;;;;-0.54;83.07;100648.53;5033172;28;20045;-64
2023/12/02 10:58:25;;;;;;;14.07;3.97;;;;;;;-0.59;83.38;100652.44;5031539;28;20473;-63
2023/12/02 11:00:58;;;;;;;15.23;4.53;;;;;;;-0.64;83.52;100657.22;5013156;28;20045;-63
2023/12/02 11:03:31;;;;;;;11.57;3.90;;;;;;;-0.64;83.34;100652.06;5013496;28;20037;-64
2023/12/02 11:06:13;;;;;;;13.30;4.00;;;;;;;-0.61;84.05;100656.59;5012589;28;20494;-63
2023/12/02 11:08:56;;;;;;;16.00;4.07;;;;;;;-0.61;83.68;100648.81;5012045;28;20543;-66
2023/12/02 11:11:41;;;;;;;14.27;4.43;;;;;;;-0.57;83.73;100654.38;5018898;28;20489;-64
2023/12/02 11:14:17;;;;;;;14.10;4.23;;;;;;;-0.59;83.71;100647.25;5019207;28;20037;-65
2023/12/02 11:17:01;;;;;;;12.43;4.72;;;;;;;-0.63;83.42;100648.69;5031464;28;20034;-64
2023/12/02 11:19:44;;;;;;;13.93;4.30;;;;;;;-0.74;83.90;100649.47;5014717;28;20034;-63
2023/12/02 11:22:39;;;;;;;13.43;4.28;;;;;;;-0.81;84.18;100648.84;5027451;28;20040;-64
2023/12/02 11:25:23;;;;;;;13.93;3.50;;;;;;;-0.89;84.19;100648.22;5013989;28;20409;-64
2023/12/02 11:28:03;;;;;;;12.10;4.10;;;;;;;-1.02;84.23;100647.94;5003211;28;20033;-63